Time;durP1;ratioP1;P1;durP2;ratioP2;P2;SDS_P1;SDS_P2;PMS_P1;PMS_P2;Temp;Humidity;BMP_temperature;BMP_pressure;BME280_temperature;BME280_humidity;BME280_pressure;Samples;Min_cycle;Max_cycle;Signal;HPM_P1;HPM_P2
2022/09/06 00:12:00;;;;;;;;;;;;;;;11.88;96.93;100437.63;5400627;22;1570;-64
2022/09/06 00:14:27;;;;;;;;;;;;;;;11.91;96.69;100445.19;5052549;28;833;-64
2022/09/06 00:16:56;;;;;;;;;;;;;;;11.91;97.46;100448.75;5052748;28;869;-66
2022/09/06 00:19:22;;;;;;;;;;;;;;;11.94;97.86;100453.50;5052315;28;1909;-65
2022/09/06 00:21:49;;;;;;;;;;;;;;;11.95;97.53;100444.00;5052420;28;849;-66
2022/09/06 00:24:15;;;;;;;;;;;;;;;11.94;98.30;100442.41;5052323;28;819;-66
2022/09/06 00:26:42;;;;;;;;;;;;;;;11.97;98.63;100443.59;5052275;28;873;-66
2022/09/06 00:29:08;;;;;;;;;;;;;;;11.98;98.30;100442.41;5052415;28;810;-66
2022/09/06 00:31:35;;;;;;;;;;;;;;;11.98;98.48;100436.88;5052256;28;815;-66
2022/09/06 00:34:02;;;;;;;;;;;;;;;11.98;99.10;100434.09;5052156;28;837;-66
2022/09/06 00:36:28;;;;;;;;;;;;;;;11.95;98.88;100429.34;5052215;28;809;-66
2022/09/06 00:38:55;;;;;;;;;;;;;;;11.92;99.29;100430.94;5052100;28;866;-66
2022/09/06 00:41:22;;;;;;;;;;;;;;;11.87;99.04;100431.31;5051915;28;913;-67
2022/09/06 00:43:48;;;;;;;;;;;;;;;11.82;99.58;100434.47;5052067;28;907;-66
2022/09/06 00:46:17;;;;;;;;;;;;;;;11.75;99.35;100431.69;5051926;28;849;-66
2022/09/06 00:48:44;;;;;;;;;;;;;;;11.70;99.37;100437.66;5051917;28;877;-67
2022/09/06 00:51:13;;;;;;;;;;;;;;;11.63;99.76;100430.13;5051806;28;814;-66
2022/09/06 00:53:39;;;;;;;;;;;;;;;11.59;100.00;100424.56;5051970;28;862;-67
2022/09/06 00:56:06;;;;;;;;;;;;;;;11.55;100.00;100429.31;5051749;28;885;-66
2022/09/06 00:58:33;;;;;;;;;;;;;;;11.51;100.00;100428.50;5051060;28;866;-66
2022/09/06 01:01:00;;;;;;;;;;;;;;;11.38;100.00;100421.78;5051661;28;1980;-66
2022/09/06 01:03:26;;;;;;;;;;;;;;;11.32;100.00;100423.34;5051714;28;912;-66
2022/09/06 01:06:25;;;;;;;;;;;;;;;11.40;100.00;100422.19;5051684;28;831;-66
2022/09/06 01:08:58;;;;;;;;;;;;;;;11.62;100.00;100425.75;5035694;28;1533;-66
2022/09/06 01:11:51;;;;;;;;;;;;;;;11.74;100.00;100433.69;5051423;28;1424;-66
2022/09/06 01:14:24;;;;;;;;;;;;;;;11.72;100.00;100424.19;5033741;28;1607;-67
2022/09/06 01:16:52;;;;;;;;;;;;;;;11.69;100.00;100420.22;5051757;28;822;-66
2022/09/06 01:19:38;;;;;;;;;;;;;;;11.67;100.00;100417.06;5051532;28;1906;-66
2022/09/06 01:22:13;;;;;;;;;;;;;;;11.62;100.00;100414.69;5051492;28;900;-66
2022/09/06 01:24:52;;;;;;;;;;;;;;;11.51;100.00;100413.88;5051528;28;814;-66
2022/09/06 01:27:37;;;;;;;;;;;;;;;11.45;100.00;100410.72;5051627;28;822;-66
2022/09/06 01:30:08;;;;;;;;;;;;;;;11.42;100.00;100411.50;5051355;28;862;-66
2022/09/06 01:32:52;;;;;;;;;;;;;;;11.43;100.00;100405.56;5051379;28;977;-66
2022/09/06 01:35:28;;;;;;;;;;;;;;;11.49;100.00;100408.75;5051291;28;826;-66
2022/09/06 01:37:55;;;;;;;;;;;;;;;11.58;100.00;100408.34;5051317;28;826;-66
2022/09/06 01:40:22;;;;;;;;;;;;;;;11.60;100.00;100409.53;5051112;28;1878;-65
2022/09/06 01:42:49;;;;;;;;;;;;;;;11.57;100.00;100406.78;5051302;28;846;-66
2022/09/06 01:45:22;;;;;;;;;;;;;;;11.52;100.00;100405.19;5051261;28;873;-66
2022/09/06 01:47:57;;;;;;;;;;;;;;;11.50;100.00;100402.03;5051173;28;849;-66
2022/09/06 01:50:39;;;;;;;;;;;;;;;11.51;100.00;100398.06;5051494;28;810;-66
2022/09/06 01:53:05;;;;;;;;;;;;;;;11.48;100.00;100396.09;5051135;28;819;-66
2022/09/06 01:55:32;;;;;;;;;;;;;;;11.45;100.00;100396.88;5051163;28;886;-67
2022/09/06 01:58:08;;;;;;;;;;;;;;;11.42;100.00;100392.91;5033352;28;1306;-66
2022/09/06 02:00:41;;;;;;;;;;;;;;;11.33;100.00;100398.06;5051081;28;1882;-66
2022/09/06 02:03:24;;;;;;;;;;;;;;;11.27;100.00;100388.56;5051081;28;826;-66
2022/09/06 02:05:53;;;;;;;;;;;;;;;11.21;100.00;100390.91;5051123;28;794;-66
2022/09/06 02:08:24;;;;;;;;;;;;;;;11.15;100.00;100378.63;5051513;28;869;-66
2022/09/06 02:11:25;;;;;;;;;;;;;;;11.09;100.00;100382.97;5054801;28;1222;-66
2022/09/06 02:13:56;;;;;;;;;;;;;;;11.06;100.00;100389.31;5055076;28;878;-66
2022/09/06 02:16:25;;;;;;;;;;;;;;;11.01;100.00;100384.94;5055050;28;787;-66
2022/09/06 02:19:05;;;;;;;;;;;;;;;11.02;100.00;100391.25;5054696;28;986;-66
2022/09/06 02:21:36;;;;;;;;;;;;;;;11.13;100.00;100391.28;5055434;28;917;-66
2022/09/06 02:24:06;;;;;;;;;;;;;;;11.20;100.00;100383.81;5054727;28;837;-65
2022/09/06 02:26:36;;;;;;;;;;;;;;;11.24;100.00;100383.78;5054665;28;881;-66
2022/09/06 02:29:03;;;;;;;;;;;;;;;11.27;100.00;100383.03;5054432;28;862;-66
2022/09/06 02:31:40;;;;;;;;;;;;;;;11.27;100.00;100388.56;5054582;28;877;-66
2022/09/06 02:34:07;;;;;;;;;;;;;;;11.20;100.00;100389.34;5054390;28;870;-66
2022/09/06 02:36:35;;;;;;;;;;;;;;;11.15;100.00;100395.25;5054447;28;853;-66
2022/09/06 02:39:02;;;;;;;;;;;;;;;11.14;100.00;100392.88;5054165;28;1894;-66
2022/09/06 02:41:29;;;;;;;;;;;;;;;11.14;100.00;100388.13;5054644;28;858;-66
2022/09/06 02:43:56;;;;;;;;;;;;;;;11.14;100.00;100385.38;5054640;28;822;-66
2022/09/06 02:46:23;;;;;;;;;;;;;;;11.11;100.00;100391.66;5054600;28;811;-66
2022/09/06 02:48:50;;;;;;;;;;;;;;;11.04;100.00;100386.91;5054588;28;811;-66
2022/09/06 02:51:17;;;;;;;;;;;;;;;10.97;100.00;100386.13;5054458;28;795;-66
2022/09/06 02:53:43;;;;;;;;;;;;;;;10.90;100.00;100397.16;5054213;28;810;-66
2022/09/06 02:56:11;;;;;;;;;;;;;;;10.88;100.00;100402.28;5054016;28;866;-66
2022/09/06 02:58:37;;;;;;;;;;;;;;;10.89;100.00;100398.34;5054548;28;774;-66
2022/09/06 03:01:03;;;;;;;;;;;;;;;10.88;100.00;100405.03;5053862;28;1979;-66
2022/09/06 03:03:31;;;;;;;;;;;;;;;10.90;100.00;100406.22;5053843;28;846;-66
2022/09/06 03:05:57;;;;;;;;;;;;;;;10.87;100.00;100404.25;5053837;28;826;-66
2022/09/06 03:08:32;;;;;;;;;;;;;;;10.85;100.00;100405.84;5053654;28;834;-66
2022/09/06 03:10:59;;;;;;;;;;;;;;;10.85;100.00;100406.63;5053864;28;928;-66
2022/09/06 03:13:26;;;;;;;;;;;;;;;10.88;100.00;100407.81;5053514;28;1401;-66
2022/09/06 03:15:54;;;;;;;;;;;;;;;10.91;100.00;100393.22;5053665;28;807;-66
2022/09/06 03:18:21;;;;;;;;;;;;;;;10.93;100.00;100388.09;5053617;28;881;-66
2022/09/06 03:20:51;;;;;;;;;;;;;;;10.95;100.00;100391.25;5052758;28;1918;-66
2022/09/06 03:23:18;;;;;;;;;;;;;;;10.95;100.00;100394.81;5053485;28;1039;-66
2022/09/06 03:25:45;;;;;;;;;;;;;;;10.88;100.00;100396.75;5053498;28;807;-66
2022/09/06 03:28:12;;;;;;;;;;;;;;;10.82;100.00;100383.31;5053437;28;838;-66
2022/09/06 03:30:39;;;;;;;;;;;;;;;10.82;100.00;100386.06;5053427;28;811;-66
2022/09/06 03:33:06;;;;;;;;;;;;;;;10.86;100.00;100383.31;5053380;28;901;-66
2022/09/06 03:35:32;;;;;;;;;;;;;;;10.90;100.00;100384.09;5035467;28;1179;-66
2022/09/06 03:37:58;;;;;;;;;;;;;;;10.89;100.00;100385.31;5053441;28;819;-66
2022/09/06 03:40:25;;;;;;;;;;;;;;;10.84;100.00;100391.22;5053093;28;1882;-66
2022/09/06 03:42:51;;;;;;;;;;;;;;;10.80;100.00;100393.97;5053291;28;865;-66
2022/09/06 03:45:18;;;;;;;;;;;;;;;10.78;100.00;100393.56;5053134;28;830;-66
2022/09/06 03:47:44;;;;;;;;;;;;;;;10.76;100.00;100387.63;5051760;28;1172;-66
2022/09/06 03:50:10;;;;;;;;;;;;;;;10.74;100.00;100392.75;5053319;28;810;-65
2022/09/06 03:52:37;;;;;;;;;;;;;;;10.72;100.00;100388.81;5053281;28;830;-65
2022/09/06 03:55:03;;;;;;;;;;;;;;;10.72;100.00;100386.03;5052918;28;917;-65
2022/09/06 03:57:30;;;;;;;;;;;;;;;10.76;100.00;100393.16;5052934;28;830;-65
2022/09/06 03:59:57;;;;;;;;;;;;;;;10.79;100.00;100389.59;5052681;28;1953;-65
2022/09/06 04:02:23;;;;;;;;;;;;;;;10.83;100.00;100393.16;5052861;28;865;-65
2022/09/06 04:04:54;;;;;;;;;;;;;;;10.90;100.00;100397.94;5052804;28;861;-66
2022/09/06 04:07:21;;;;;;;;;;;;;;;10.95;100.00;100394.03;5052619;28;802;-65
2022/09/06 04:09:48;;;;;;;;;;;;;;;11.00;100.00;100401.94;5052625;28;810;-66
2022/09/06 04:12:15;;;;;;;;;;;;;;;11.07;100.00;100403.91;5052565;28;1144;-66
2022/09/06 04:14:41;;;;;;;;;;;;;;;11.13;100.00;100402.34;5052544;28;887;-66
2022/09/06 04:17:08;;;;;;;;;;;;;;;11.21;100.00;100410.28;5052640;28;818;-65
2022/09/06 04:19:33;;;;;;;;;;;;;;;11.32;100.00;100413.06;5052438;28;1910;-66
2022/09/06 04:22:00;;;;;;;;;;;;;;;11.42;100.00;100411.50;5052375;28;830;-66
2022/09/06 04:24:26;;;;;;;;;;;;;;;11.51;100.00;100405.59;5052401;28;853;-65
2022/09/06 04:26:53;;;;;;;;;;;;;;;11.61;100.00;100410.34;5052227;28;894;-66
2022/09/06 04:29:20;;;;;;;;;;;;;;;11.74;100.00;100407.97;5052355;28;889;-65
2022/09/06 04:31:46;;;;;;;;;;;;;;;11.82;100.00;100415.06;5052447;28;905;-66
2022/09/06 04:34:15;;;;;;;;;;;;;;;11.97;100.00;100413.13;5052341;28;878;-66
2022/09/06 04:36:42;;;;;;;;;;;;;;;12.13;100.00;100407.97;5052002;28;869;-66
2022/09/06 04:39:08;;;;;;;;;;;;;;;12.24;100.00;100411.50;5051991;28;1890;-66
2022/09/06 04:41:35;;;;;;;;;;;;;;;12.35;100.00;100405.94;5052053;28;908;-65
2022/09/06 04:44:01;;;;;;;;;;;;;;;12.48;100.00;100402.72;5052068;28;810;-66
2022/09/06 04:46:29;;;;;;;;;;;;;;;12.61;100.00;100401.09;5052080;28;900;-66
2022/09/06 04:48:56;;;;;;;;;;;;;;;12.73;100.00;100408.97;5051918;28;850;-66
2022/09/06 04:51:23;;;;;;;;;;;;;;;12.88;100.00;100404.16;5051939;28;924;-66
2022/09/06 04:53:50;;;;;;;;;;;;;;;13.04;100.00;100406.47;5051800;28;807;-66
2022/09/06 04:56:18;;;;;;;;;;;;;;;13.20;100.00;100412.31;5051923;28;798;-66
2022/09/06 04:58:46;;;;;;;;;;;;;;;13.39;100.00;100413.03;5051818;28;822;-65
2022/09/06 05:01:15;;;;;;;;;;;;;;;13.56;100.00;100405.75;5051491;28;1910;-66
2022/09/06 05:03:41;;;;;;;;;;;;;;;13.75;100.00;100416.31;5051742;28;811;-66
2022/09/06 05:06:12;;;;;;;;;;;;;;;13.96;100.00;100412.56;5051581;28;850;-66
2022/09/06 05:08:39;;;;;;;;;;;;;;;14.32;100.00;100409.47;5051569;28;1025;-66
2022/09/06 05:11:07;;;;;;;;;;;;;;;14.76;99.47;100415.34;5051693;28;1072;-66
2022/09/06 05:13:34;;;;;;;;;;;;;;;15.34;97.56;100410.59;5051418;28;1229;-66
2022/09/06 05:16:01;;;;;;;;;;;;;;;15.91;95.10;100403.34;5051625;28;924;-66
2022/09/06 05:18:27;;;;;;;;;;;;;;;16.40;91.11;100392.47;5051524;28;862;-66
2022/09/06 05:20:54;;;;;;;;;;;;;;;16.79;88.29;100396.50;5051393;28;1918;-66
2022/09/06 05:23:20;;;;;;;;;;;;;;;17.10;83.84;100396.25;5051441;28;890;-66
2022/09/06 05:25:47;;;;;;;;;;;;;;;17.35;81.10;100401.28;5051479;28;806;-66
2022/09/06 05:28:15;;;;;;;;;;;;;;;17.57;78.41;100400.78;5033520;28;1369;-66
2022/09/06 05:30:41;;;;;;;;;;;;;;;17.74;76.37;100405.13;5051503;28;807;-66
2022/09/06 05:33:08;;;;;;;;;;;;;;;17.89;74.00;100408.38;5051416;28;799;-66
2022/09/06 05:35:34;;;;;;;;;;;;;;;18.04;73.26;100400.41;5051522;28;860;-66
2022/09/06 05:38:01;;;;;;;;;;;;;;;18.20;71.97;100399.59;5051416;28;807;-66
2022/09/06 05:40:27;;;;;;;;;;;;;;;18.39;70.57;100406.28;5051212;28;1881;-66
2022/09/06 05:42:54;;;;;;;;;;;;;;;18.50;68.41;100406.78;5051354;28;811;-67
2022/09/06 05:45:20;;;;;;;;;;;;;;;18.61;68.00;100404.47;5055045;28;870;-67
2022/09/06 05:47:48;;;;;;;;;;;;;;;18.72;66.12;100409.75;5037553;28;1377;-67
2022/09/06 05:50:14;;;;;;;;;;;;;;;18.81;65.56;100400.72;5055208;28;899;-66
2022/09/06 05:52:41;;;;;;;;;;;;;;;18.93;65.34;100403.56;5037326;28;1298;-66
2022/09/06 05:55:08;;;;;;;;;;;;;;;19.06;64.76;100400.00;5055248;28;873;-66
2022/09/06 05:57:34;;;;;;;;;;;;;;;19.25;63.64;100403.81;5055176;28;814;-66
2022/09/06 06:00:01;;;;;;;;;;;;;;;19.37;62.39;100408.63;5055320;28;1966;-66
2022/09/06 06:02:28;;;;;;;;;;;;;;;19.48;61.55;100403.47;5055011;28;962;-67
2022/09/06 06:04:54;;;;;;;;;;;;;;;19.62;60.64;100415.47;5055043;28;885;-66
2022/09/06 06:07:21;;;;;;;;;;;;;;;19.80;60.48;100404.47;5054916;28;864;-66
2022/09/06 06:09:47;;;;;;;;;;;;;;;19.97;59.79;100408.69;5055016;28;860;-66
2022/09/06 06:12:14;;;;;;;;;;;;;;;20.09;58.55;100411.91;5054605;28;1413;-66
2022/09/06 06:14:41;;;;;;;;;;;;;;;20.22;57.54;100404.22;5054900;28;870;-66
2022/09/06 06:17:08;;;;;;;;;;;;;;;20.49;56.46;100402.91;5055051;28;877;-66
2022/09/06 06:19:34;;;;;;;;;;;;;;;20.92;54.89;100399.28;5054757;28;1968;-66
2022/09/06 06:22:01;;;;;;;;;;;;;;;21.25;54.42;100396.03;5054828;28;853;-66
2022/09/06 06:24:27;;;;;;;;;;;;;;;21.40;53.91;100399.84;5055027;28;830;-66
2022/09/06 06:26:53;;;;;;;;;;;;;;;21.32;53.73;100392.94;5054945;28;858;-66
2022/09/06 06:29:20;;;;;;;;;;;;;;;21.52;53.71;100403.81;5055310;28;809;-66
2022/09/06 06:31:47;;;;;;;;;;;;;;;21.76;51.83;100398.41;5054840;28;862;-66
2022/09/06 06:34:12;;;;;;;;;;;;;;;21.85;50.07;100402.47;5054402;28;810;-67
2022/09/06 06:36:39;;;;;;;;;;;;;;;21.89;48.09;100401.09;5054324;28;889;-65
2022/09/06 06:39:07;;;;;;;;;;;;;;;22.03;48.15;100396.88;5054544;28;874;-65
2022/09/06 06:41:34;;;;;;;;;;;;;;;22.20;47.78;100398.13;5054358;28;1890;-66
2022/09/06 06:44:01;;;;;;;;;;;;;;;22.39;47.63;100401.00;5054321;28;850;-66
2022/09/06 06:46:30;;;;;;;;;;;;;;;22.66;46.75;100394.56;5054231;28;901;-65
2022/09/06 06:48:56;;;;;;;;;;;;;;;23.32;45.69;100398.75;5054365;28;830;-65
2022/09/06 06:51:30;;;;;;;;;;;;;;;24.49;43.01;100398.97;5054780;28;823;-65
2022/09/06 06:53:56;;;;;;;;;;;;;;;25.37;41.17;100400.22;5054105;28;830;-66
2022/09/06 06:56:27;;;;;;;;;;;;;;;26.13;39.74;100396.66;5052903;28;858;-66
2022/09/06 06:58:56;;;;;;;;;;;;;;;26.62;39.10;100404.16;5053994;28;973;-66
2022/09/06 07:01:25;;;;;;;;;;;;;;;27.00;37.49;100401.44;5053953;28;1886;-66
2022/09/06 07:03:51;;;;;;;;;;;;;;;27.19;37.53;100405.44;5053817;28;881;-66
2022/09/06 07:06:23;;;;;;;;;;;;;;;27.39;36.57;100398.91;5053834;28;995;-66
2022/09/06 07:08:50;;;;;;;;;;;;;;;27.40;35.70;100403.31;5053805;28;834;-66
2022/09/06 07:11:17;;;;;;;;;;;;;;;27.34;35.33;100407.38;5053932;28;951;-66
2022/09/06 07:13:44;;;;;;;;;;;;;;;26.51;36.38;100411.75;5053553;28;1423;-66
2022/09/06 07:16:10;;;;;;;;;;;;;;;26.46;37.38;100414.03;5035790;28;1193;-66
2022/09/06 07:18:41;;;;;;;;;;;;;;;27.24;36.16;100418.91;5053639;28;961;-66
2022/09/06 07:21:12;;;;;;;;;;;;;;;27.62;34.23;100427.44;5053763;28;1973;-66
2022/09/06 07:23:39;;;;;;;;;;;;;;;27.76;33.47;100411.50;5053657;28;822;-66
2022/09/06 07:26:06;;;;;;;;;;;;;;;27.63;33.33;100421.25;5053525;28;819;-66
2022/09/06 07:28:33;;;;;;;;;;;;;;;27.49;33.63;100405.94;5053475;28;795;-66
2022/09/06 07:31:05;;;;;;;;;;;;;;;27.40;34.24;100414.66;5053480;28;826;-67
2022/09/06 07:33:43;;;;;;;;;;;;;;;27.24;33.96;100418.91;5053415;28;851;-66
2022/09/06 07:36:10;;;;;;;;;;;;;;;27.02;35.04;100419.50;5053299;28;873;-67
2022/09/06 07:38:36;;;;;;;;;;;;;;;26.78;35.29;100422.63;5053300;28;914;-67
2022/09/06 07:41:04;;;;;;;;;;;;;;;26.60;36.03;100420.88;5053146;28;1887;-67
2022/09/06 07:43:32;;;;;;;;;;;;;;;26.71;36.10;100425.91;5053163;28;830;-67
2022/09/06 07:49:02;;;;;;;;;;;;;;;27.80;32.33;100417.72;5053138;28;597;-68
2022/09/06 07:51:29;;;;;;;;;;;;;;;28.48;31.54;100415.94;5053060;28;818;-67
2022/09/06 07:53:55;;;;;;;;;;;;;;;28.75;31.14;100420.16;5052912;28;795;-67
2022/09/06 08:08:34;;;;;;;;;;;;;;;27.97;31.74;100400.78;5053027;28;624;-66
2022/09/06 08:11:00;;;;;;;;;;;;;;;27.08;33.18;100403.31;5052701;28;930;-66
2022/09/06 08:13:27;;;;;;;;;;;;;;;26.45;33.82;100401.13;5034376;28;1267;-66
2022/09/06 08:16:00;;;;;;;;;;;;;;;25.14;36.66;100407.56;5052608;28;810;-65
2022/09/06 08:18:27;;;;;;;;;;;;;;;26.32;34.95;100395.06;5052510;28;810;-65
2022/09/06 08:20:53;;;;;;;;;;;;;;;27.75;33.09;100392.91;5052700;28;1910;-65
2022/09/06 08:35:31;;;;;;;;;;;;;;;27.49;32.61;100388.13;5052541;28;620;-65
2022/09/06 08:37:57;;;;;;;;;;;;;;;28.03;30.77;100393.06;5052207;28;803;-65
2022/09/06 08:52:41;;;;;;;;;;;;;;;27.56;31.00;100381.19;5052182;28;621;-65
2022/09/06 08:58:33;;;;;;;;;;;;;;;28.16;30.43;100373.47;5051882;28;617;-65
2022/09/06 09:01:07;;;;;;;;;;;;;;;28.73;29.78;100365.09;5051724;28;1965;-66
2022/09/06 09:03:49;;;;;;;;;;;;;;;28.95;28.62;100364.31;5051895;28;823;-65
2022/09/06 09:06:16;;;;;;;;;;;;;;;29.40;28.50;100359.38;5051949;28;838;-65
2022/09/06 09:08:55;;;;;;;;;;;;;;;29.08;27.73;100351.13;5051693;28;858;-66
2022/09/06 09:11:24;;;;;;;;;;;;;;;28.99;28.70;100348.53;5051792;28;1040;-65
2022/09/06 09:13:54;;;;;;;;;;;;;;;29.12;28.80;100342.34;5051772;28;1291;-67
2022/09/06 09:16:22;;;;;;;;;;;;;;;29.29;28.69;100348.00;5051618;28;1201;-67
2022/09/06 09:21:50;;;;;;;;;;;;;;;28.70;29.97;100339.25;5051568;28;648;-66
2022/09/06 09:24:16;;;;;;;;;;;;;;;28.71;29.80;100334.31;5051505;28;881;-66
2022/09/06 09:27:01;;;;;;;;;;;;;;;28.82;28.78;100331.47;5051434;28;787;-66
2022/09/06 09:29:27;;;;;;;;;;;;;;;28.83;29.87;100349.34;5051431;28;846;-65
2022/09/06 09:35:22;;;;;;;;;;;;;;;27.72;29.61;100331.44;5047034;28;1116;-65
2022/09/06 09:37:55;;;;;;;;;;;;;;;27.62;29.62;100339.44;5051334;28;905;-65
2022/09/06 09:40:43;;;;;;;;;;;;;;;27.53;29.91;100331.91;5051319;28;1889;-65
2022/09/06 09:43:14;;;;;;;;;;;;;;;27.99;29.80;100338.56;5051435;28;896;-65
2022/09/06 09:49:08;;;;;;;;;;;;;;;29.57;27.51;100324.38;5051367;28;672;-66
2022/09/06 09:51:41;;;;;;;;;;;;;;;29.24;27.47;100328.88;5038860;28;1125;-68
2022/09/06 09:54:08;;;;;;;;;;;;;;;28.69;28.05;100326.31;5051331;28;822;-66
2022/09/06 09:57:04;;;;;;;;;;;;;;;27.90;28.76;100320.47;5051206;28;878;-65
2022/09/06 09:59:38;;;;;;;;;;;;;;;27.33;29.77;100307.28;5033262;28;1953;-65
2022/09/06 10:02:20;;;;;;;;;;;;;;;27.62;29.19;100314.66;5051108;28;822;-65
2022/09/06 10:07:51;;;;;;;;;;;;;;;27.90;27.99;100306.25;5051084;28;1288;-66
2022/09/06 10:10:26;;;;;;;;;;;;;;;27.98;28.49;100300.09;5050896;28;918;-66
2022/09/06 10:25:39;;;;;;;;;;;;;;;27.83;27.24;100280.41;5051247;28;668;-65
2022/09/06 10:28:27;;;;;;;;;;;;;;;27.19;27.78;100269.25;5051078;28;842;-67
2022/09/06 10:43:08;;;;;;;;;;;;;;;28.79;26.16;100249.28;5054855;28;648;-65
2022/09/06 10:45:35;;;;;;;;;;;;;;;29.05;26.29;100252.56;5053558;28;1306;-64
2022/09/06 10:48:24;;;;;;;;;;;;;;;29.35;26.39;100254.06;5054565;28;854;-66
2022/09/06 10:50:56;;;;;;;;;;;;;;;29.58;26.74;100246.97;5036218;28;1215;-66
2022/09/06 10:56:28;;;;;;;;;;;;;;;28.29;28.33;100242.25;5054020;28;1244;-66
2022/09/06 10:59:09;;;;;;;;;;;;;;;28.33;28.48;100242.03;5054050;28;811;-66
2022/09/06 11:04:49;;;;;;;;;;;;;;;28.56;27.77;100237.91;5054023;28;664;-66
2022/09/06 11:07:15;;;;;;;;;;;;;;;28.49;28.12;100238.44;5054061;28;893;-66
2022/09/06 11:10:11;;;;;;;;;;;;;;;28.87;27.78;100233.22;5054103;28;819;-63
2022/09/06 11:12:43;;;;;;;;;;;;;;;29.54;26.48;100240.78;5053636;28;1244;-64
2022/09/06 11:15:12;;;;;;;;;;;;;;;30.27;24.83;100234.63;5054023;28;869;-66
2022/09/06 11:17:57;;;;;;;;;;;;;;;30.59;25.44;100244.78;5053731;28;838;-63
2022/09/06 11:20:35;;;;;;;;;;;;;;;30.47;25.88;100239.19;5053591;28;1910;-63
2022/09/06 11:23:20;;;;;;;;;;;;;;;29.48;26.55;100237.94;5053649;28;815;-64
2022/09/06 11:26:04;;;;;;;;;;;;;;;28.90;27.39;100223.63;5053746;28;810;-64
2022/09/06 11:29:01;;;;;;;;;;;;;;;29.77;26.54;100218.69;5053412;28;824;-63
2022/09/06 11:31:53;;;;;;;;;;;;;;;30.43;25.55;100215.88;5053389;28;821;-67
2022/09/06 11:34:27;;;;;;;;;;;;;;;30.06;25.82;100216.41;5053613;28;831;-63
2022/09/06 11:36:55;;;;;;;;;;;;;;;30.76;25.60;100214.00;5053360;28;921;-64
2022/09/06 11:39:31;;;;;;;;;;;;;;;30.62;25.51;100201.72;5053671;28;846;-65
2022/09/06 11:42:06;;;;;;;;;;;;;;;30.12;25.74;100217.91;5052573;28;811;-63
2022/09/06 11:45:04;;;;;;;;;;;;;;;29.82;26.33;100208.56;5053155;28;819;-63
2022/09/06 11:47:41;;;;;;;;;;;;;;;29.51;26.92;100202.75;5035453;28;1355;-65
2022/09/06 11:50:46;;;;;;;;;;;;;;;30.06;26.54;100208.63;5053034;28;1295;-63
2022/09/06 11:56:29;;;;;;;;;;;;;;;30.88;25.46;100206.16;5053139;28;656;-64
2022/09/06 11:59:07;;;;;;;;;;;;;;;30.49;25.78;100201.56;5052797;28;864;-64
2022/09/06 12:01:34;;;;;;;;;;;;;;;31.08;25.66;100199.16;5052844;28;1882;-64
2022/09/06 12:04:08;;;;;;;;;;;;;;;31.87;24.83;100201.00;5052831;28;833;-64
2022/09/06 12:06:39;;;;;;;;;;;;;;;31.62;23.69;100206.03;5052692;28;900;-63
2022/09/06 12:09:36;;;;;;;;;;;;;;;31.00;24.31;100201.06;5053028;28;823;-62
2022/09/06 12:12:03;;;;;;;;;;;;;;;30.32;25.42;100196.00;5035669;28;1383;-63
2022/09/06 12:14:30;;;;;;;;;;;;;;;29.78;26.11;100194.56;5052639;28;814;-63
2022/09/06 12:17:01;;;;;;;;;;;;;;;30.16;25.92;100191.97;5052573;28;897;-63
2022/09/06 12:19:46;;;;;;;;;;;;;;;30.90;25.08;100184.31;5052498;28;1906;-63
2022/09/06 12:22:28;;;;;;;;;;;;;;;31.61;24.66;100185.25;5052436;28;845;-64
2022/09/06 12:31:18;;;;;;;;;;;;;;;33.02;22.40;100190.72;5052663;28;656;-64
2022/09/06 12:33:46;;;;;;;;;;;;;;;30.56;24.33;100185.97;5052531;28;803;-63
2022/09/06 12:36:19;;;;;;;;;;;;;;;29.33;26.13;100188.34;5052253;28;862;-66
2022/09/06 12:39:04;;;;;;;;;;;;;;;28.44;26.78;100188.00;5034236;28;862;-66
2022/09/06 12:41:37;;;;;;;;;;;;;;;27.82;27.55;100185.88;5052053;28;1890;-65
2022/09/06 12:44:06;;;;;;;;;;;;;;;27.46;28.48;100196.91;5034090;28;1404;-65
2022/09/06 12:46:33;;;;;;;;;;;;;;;26.98;31.08;100191.25;5051959;28;804;-65
2022/09/06 12:49:10;;;;;;;;;;;;;;;26.53;33.35;100182.47;5052023;28;890;-65
2022/09/06 12:51:38;;;;;;;;;;;;;;;26.35;33.70;100181.56;5052162;28;922;-66
2022/09/06 12:54:17;;;;;;;;;;;;;;;26.21;33.88;100183.25;5050977;28;926;-64
2022/09/06 12:56:44;;;;;;;;;;;;;;;26.23;34.13;100185.59;5051860;28;881;-65
2022/09/06 12:59:13;;;;;;;;;;;;;;;26.36;33.46;100185.94;5051704;28;854;-66
2022/09/06 13:13:52;;;;;;;;;;;;;;;25.51;36.95;100183.56;5051569;28;1249;-64
2022/09/06 13:16:20;;;;;;;;;;;;;;;25.63;36.85;100177.53;5051644;28;806;-64
2022/09/06 13:24:54;;;;;;;;;;;;;;;25.22;37.29;100194.56;5051536;28;668;-67
2022/09/06 13:27:44;;;;;;;;;;;;;;;24.83;37.93;100174.22;5051648;28;831;-66
2022/09/06 13:30:32;;;;;;;;;;;;;;;24.51;38.71;100182.47;5033562;28;1177;-67
2022/09/06 13:32:58;;;;;;;;;;;;;;;24.34;39.42;100187.06;5033393;28;1286;-67
2022/09/06 13:35:29;;;;;;;;;;;;;;;24.38;39.44;100191.25;5051312;28;838;-67
2022/09/06 13:38:14;;;;;;;;;;;;;;;24.36;39.12;100170.41;5051389;28;842;-66
2022/09/06 13:40:44;;;;;;;;;;;;;;;24.37;38.84;100183.28;5051250;28;1906;-67
2022/09/06 13:43:27;;;;;;;;;;;;;;;24.38;38.30;100171.47;5051361;28;858;-66
2022/09/06 13:46:05;;;;;;;;;;;;;;;24.22;38.56;100177.66;5051320;28;806;-68
2022/09/06 13:48:32;;;;;;;;;;;;;;;24.19;38.73;100181.44;5051239;28;791;-67
2022/09/06 13:50:59;;;;;;;;;;;;;;;24.09;39.02;100189.25;5051280;28;846;-67
2022/09/06 13:53:26;;;;;;;;;;;;;;;24.04;39.32;100184.25;5033257;28;1287;-67
2022/09/06 13:55:53;;;;;;;;;;;;;;;23.96;39.21;100188.72;5051188;28;799;-67
2022/09/06 13:58:36;;;;;;;;;;;;;;;23.79;39.41;100194.06;5051018;28;886;-67
2022/09/06 14:01:02;;;;;;;;;;;;;;;23.65;39.16;100195.59;5051084;28;1882;-67
2022/09/06 14:06:31;;;;;;;;;;;;;;;23.66;38.86;100194.31;5054979;28;688;-66
2022/09/06 14:08:58;;;;;;;;;;;;;;;23.62;39.02;100196.56;5055063;28;815;-68
2022/09/06 14:11:24;;;;;;;;;;;;;;;23.59;39.03;100191.88;5055176;28;1030;-67
2022/09/06 14:13:51;;;;;;;;;;;;;;;23.54;38.99;100195.38;5054678;28;1268;-68
2022/09/06 14:16:18;;;;;;;;;;;;;;;23.44;39.12;100189.03;5054920;28;814;-66
2022/09/06 14:18:45;;;;;;;;;;;;;;;23.34;38.89;100193.97;5054869;28;889;-68
2022/09/06 14:21:12;;;;;;;;;;;;;;;23.25;39.27;100191.22;5054711;28;1973;-66
2022/09/06 14:23:39;;;;;;;;;;;;;;;23.23;39.19;100188.09;5054773;28;806;-66
2022/09/06 14:26:05;;;;;;;;;;;;;;;23.14;39.28;100188.94;5054744;28;862;-67
2022/09/06 14:28:32;;;;;;;;;;;;;;;23.09;39.11;100189.59;5054630;28;880;-67
2022/09/06 14:31:19;;;;;;;;;;;;;;;23.16;39.15;100191.28;5054683;28;786;-67
2022/09/06 14:33:46;;;;;;;;;;;;;;;23.23;39.15;100188.09;5054517;28;1180;-67
2022/09/06 14:36:14;;;;;;;;;;;;;;;23.40;38.90;100180.75;5054695;28;842;-67
2022/09/06 14:38:42;;;;;;;;;;;;;;;24.08;37.84;100187.66;5054436;28;844;-66
2022/09/06 14:41:17;;;;;;;;;;;;;;;24.51;37.13;100174.00;5054321;28;1951;-69
2022/09/06 14:43:46;;;;;;;;;;;;;;;24.74;36.72;100182.81;5054288;28;954;-67
2022/09/06 14:46:19;;;;;;;;;;;;;;;24.59;36.99;100183.63;5054256;28;826;-68
2022/09/06 14:48:54;;;;;;;;;;;;;;;24.64;36.90;100180.13;5054567;28;865;-67
2022/09/06 15:03:34;;;;;;;;;;;;;;;24.38;36.94;100182.75;5054400;28;676;-68
2022/09/06 15:06:01;;;;;;;;;;;;;;;24.27;36.86;100174.13;5053872;28;852;-68
2022/09/06 15:08:28;;;;;;;;;;;;;;;24.17;37.44;100179.09;5036151;28;890;-68
2022/09/06 15:10:55;;;;;;;;;;;;;;;24.22;37.19;100186.13;5053943;28;918;-67
2022/09/06 15:13:27;;;;;;;;;;;;;;;23.82;38.00;100182.59;5053671;28;1402;-69
2022/09/06 15:15:55;;;;;;;;;;;;;;;23.55;38.54;100194.09;5053144;28;799;-67
2022/09/06 15:18:22;;;;;;;;;;;;;;;23.27;38.71;100197.16;5053307;28;822;-68
2022/09/06 15:20:50;;;;;;;;;;;;;;;22.99;39.48;100202.94;5053711;28;1981;-69
2022/09/06 15:23:18;;;;;;;;;;;;;;;22.78;40.39;100209.63;5053586;28;853;-68
2022/09/06 15:25:45;;;;;;;;;;;;;;;22.55;40.94;100208.31;5053483;28;873;-67
2022/09/06 15:28:12;;;;;;;;;;;;;;;22.23;41.76;100205.00;5053526;28;917;-67